sensor_id;sensor_type;location;lat;lon;timestamp;P1;durP1;ratioP1;P2;durP2;ratioP2
14584;SDS011;7379;51.506;11.876;2022-09-09T00:02:18;2.05;;;1.50;;
14584;SDS011;7379;51.506;11.876;2022-09-09T00:04:46;3.70;;;1.88;;
14584;SDS011;7379;51.506;11.876;2022-09-09T00:07:25;2.65;;;1.50;;
14584;SDS011;7379;51.506;11.876;2022-09-09T00:10:04;2.42;;;1.70;;
14584;SDS011;7379;51.506;11.876;2022-09-09T00:12:44;1.60;;;1.42;;
14584;SDS011;7379;51.506;11.876;2022-09-09T00:15:20;2.53;;;1.70;;
14584;SDS011;7379;51.506;11.876;2022-09-09T00:17:52;1.63;;;1.52;;
14584;SDS011;7379;51.506;11.876;2022-09-09T00:20:24;1.70;;;1.60;;
14584;SDS011;7379;51.506;11.876;2022-09-09T00:22:57;1.75;;;1.52;;
14584;SDS011;7379;51.506;11.876;2022-09-09T00:25:32;1.80;;;1.65;;
14584;SDS011;7379;51.506;11.876;2022-09-09T00:28:07;1.65;;;1.30;;
14584;SDS011;7379;51.506;11.876;2022-09-09T00:30:40;2.60;;;1.60;;
14584;SDS011;7379;51.506;11.876;2022-09-09T00:33:09;2.08;;;1.63;;
14584;SDS011;7379;51.506;11.876;2022-09-09T00:35:41;1.90;;;1.30;;
14584;SDS011;7379;51.506;11.876;2022-09-09T00:38:13;2.13;;;1.50;;
14584;SDS011;7379;51.506;11.876;2022-09-09T00:40:45;2.30;;;1.70;;
14584;SDS011;7379;51.506;11.876;2022-09-09T00:43:25;2.70;;;1.70;;
14584;SDS011;7379;51.506;11.876;2022-09-09T00:48:45;1.88;;;1.40;;
14584;SDS011;7379;51.506;11.876;2022-09-09T00:51:22;1.90;;;1.60;;
14584;SDS011;7379;51.506;11.876;2022-09-09T00:54:05;2.25;;;1.52;;
14584;SDS011;7379;51.506;11.876;2022-09-09T00:56:42;2.28;;;1.58;;
14584;SDS011;7379;51.506;11.876;2022-09-09T00:59:22;3.50;;;1.70;;
14584;SDS011;7379;51.506;11.876;2022-09-09T01:01:55;1.95;;;1.55;;
14584;SDS011;7379;51.506;11.876;2022-09-09T01:04:25;2.03;;;1.33;;
14584;SDS011;7379;51.506;11.876;2022-09-09T01:07:00;2.58;;;1.77;;
14584;SDS011;7379;51.506;11.876;2022-09-09T01:09:34;4.32;;;1.80;;
14584;SDS011;7379;51.506;11.876;2022-09-09T01:12:09;1.42;;;1.30;;
14584;SDS011;7379;51.506;11.876;2022-09-09T01:14:42;2.58;;;1.52;;
14584;SDS011;7379;51.506;11.876;2022-09-09T01:17:14;2.95;;;1.70;;
14584;SDS011;7379;51.506;11.876;2022-09-09T01:19:50;1.98;;;1.48;;
14584;SDS011;7379;51.506;11.876;2022-09-09T01:22:29;1.88;;;1.40;;
14584;SDS011;7379;51.506;11.876;2022-09-09T01:27:56;2.30;;;1.60;;
14584;SDS011;7379;51.506;11.876;2022-09-09T01:30:26;2.05;;;1.60;;
14584;SDS011;7379;51.506;11.876;2022-09-09T01:32:54;1.98;;;1.33;;
14584;SDS011;7379;51.506;11.876;2022-09-09T01:35:29;1.60;;;1.50;;
14584;SDS011;7379;51.506;11.876;2022-09-09T01:38:01;2.92;;;1.60;;
14584;SDS011;7379;51.506;11.876;2022-09-09T01:40:28;2.75;;;1.80;;
14584;SDS011;7379;51.506;11.876;2022-09-09T01:42:56;2.20;;;1.58;;
14584;SDS011;7379;51.506;11.876;2022-09-09T01:45:23;1.70;;;1.33;;
14584;SDS011;7379;51.506;11.876;2022-09-09T01:47:50;1.98;;;1.55;;
14584;SDS011;7379;51.506;11.876;2022-09-09T01:50:19;2.13;;;1.20;;
14584;SDS011;7379;51.506;11.876;2022-09-09T01:52:48;2.92;;;1.70;;
14584;SDS011;7379;51.506;11.876;2022-09-09T01:55:17;2.50;;;1.70;;
14584;SDS011;7379;51.506;11.876;2022-09-09T01:57:50;2.50;;;1.40;;
14584;SDS011;7379;51.506;11.876;2022-09-09T02:00:26;1.75;;;1.27;;
14584;SDS011;7379;51.506;11.876;2022-09-09T02:02:58;2.22;;;1.60;;
14584;SDS011;7379;51.506;11.876;2022-09-09T02:05:34;1.92;;;1.50;;
14584;SDS011;7379;51.506;11.876;2022-09-09T02:08:05;2.10;;;1.50;;
14584;SDS011;7379;51.506;11.876;2022-09-09T02:10:35;2.42;;;1.50;;
14584;SDS011;7379;51.506;11.876;2022-09-09T02:13:09;3.13;;;1.65;;
14584;SDS011;7379;51.506;11.876;2022-09-09T02:15:42;3.88;;;1.75;;
14584;SDS011;7379;51.506;11.876;2022-09-09T02:18:13;1.70;;;1.60;;
14584;SDS011;7379;51.506;11.876;2022-09-09T02:20:43;3.08;;;1.63;;
14584;SDS011;7379;51.506;11.876;2022-09-09T02:23:11;2.67;;;1.70;;
14584;SDS011;7379;51.506;11.876;2022-09-09T02:25:40;2.65;;;1.55;;
14584;SDS011;7379;51.506;11.876;2022-09-09T02:28:09;2.40;;;1.63;;
14584;SDS011;7379;51.506;11.876;2022-09-09T02:30:38;2.08;;;1.60;;
14584;SDS011;7379;51.506;11.876;2022-09-09T02:33:08;3.15;;;1.70;;
14584;SDS011;7379;51.506;11.876;2022-09-09T02:35:37;2.42;;;1.67;;
14584;SDS011;7379;51.506;11.876;2022-09-09T02:38:07;1.83;;;1.50;;
14584;SDS011;7379;51.506;11.876;2022-09-09T02:40:36;3.10;;;1.90;;
14584;SDS011;7379;51.506;11.876;2022-09-09T02:43:03;2.45;;;1.80;;
14584;SDS011;7379;51.506;11.876;2022-09-09T02:45:34;3.13;;;1.52;;
14584;SDS011;7379;51.506;11.876;2022-09-09T02:48:14;2.03;;;1.58;;
14584;SDS011;7379;51.506;11.876;2022-09-09T02:50:49;1.50;;;1.40;;
14584;SDS011;7379;51.506;11.876;2022-09-09T02:53:21;2.60;;;1.70;;
14584;SDS011;7379;51.506;11.876;2022-09-09T02:55:51;1.85;;;1.50;;
14584;SDS011;7379;51.506;11.876;2022-09-09T02:58:23;2.40;;;1.60;;
14584;SDS011;7379;51.506;11.876;2022-09-09T03:00:51;2.33;;;1.50;;
14584;SDS011;7379;51.506;11.876;2022-09-09T03:03:19;2.50;;;1.63;;
14584;SDS011;7379;51.506;11.876;2022-09-09T03:05:47;1.80;;;1.50;;
14584;SDS011;7379;51.506;11.876;2022-09-09T03:08:14;2.55;;;1.75;;
14584;SDS011;7379;51.506;11.876;2022-09-09T03:10:42;2.42;;;1.55;;
14584;SDS011;7379;51.506;11.876;2022-09-09T03:13:09;2.25;;;1.63;;
14584;SDS011;7379;51.506;11.876;2022-09-09T03:15:37;1.90;;;1.50;;
14584;SDS011;7379;51.506;11.876;2022-09-09T03:18:04;2.47;;;1.70;;
14584;SDS011;7379;51.506;11.876;2022-09-09T03:20:32;2.47;;;1.60;;
14584;SDS011;7379;51.506;11.876;2022-09-09T03:23:00;4.18;;;1.67;;
14584;SDS011;7379;51.506;11.876;2022-09-09T03:25:27;3.20;;;1.60;;
14584;SDS011;7379;51.506;11.876;2022-09-09T03:27:55;2.75;;;1.60;;
14584;SDS011;7379;51.506;11.876;2022-09-09T03:30:22;2.47;;;1.60;;
14584;SDS011;7379;51.506;11.876;2022-09-09T03:32:50;2.95;;;1.70;;
14584;SDS011;7379;51.506;11.876;2022-09-09T03:35:17;2.25;;;1.67;;
14584;SDS011;7379;51.506;11.876;2022-09-09T03:37:46;2.08;;;1.65;;
14584;SDS011;7379;51.506;11.876;2022-09-09T03:40:13;2.08;;;1.60;;
14584;SDS011;7379;51.506;11.876;2022-09-09T03:42:40;2.90;;;1.70;;
14584;SDS011;7379;51.506;11.876;2022-09-09T03:45:07;2.70;;;1.60;;
14584;SDS011;7379;51.506;11.876;2022-09-09T03:47:35;3.30;;;1.60;;
14584;SDS011;7379;51.506;11.876;2022-09-09T03:50:03;3.58;;;1.70;;
14584;SDS011;7379;51.506;11.876;2022-09-09T03:52:34;2.63;;;1.42;;
14584;SDS011;7379;51.506;11.876;2022-09-09T03:55:02;2.58;;;1.50;;
14584;SDS011;7379;51.506;11.876;2022-09-09T03:57:30;3.17;;;1.70;;
14584;SDS011;7379;51.506;11.876;2022-09-09T03:59:59;1.90;;;1.60;;
14584;SDS011;7379;51.506;11.876;2022-09-09T04:02:27;2.05;;;1.50;;
14584;SDS011;7379;51.506;11.876;2022-09-09T04:04:53;2.63;;;1.80;;
14584;SDS011;7379;51.506;11.876;2022-09-09T04:07:21;2.78;;;1.58;;
14584;SDS011;7379;51.506;11.876;2022-09-09T04:09:48;2.15;;;1.67;;
14584;SDS011;7379;51.506;11.876;2022-09-09T04:12:16;2.55;;;1.73;;
14584;SDS011;7379;51.506;11.876;2022-09-09T04:14:42;2.35;;;1.70;;
14584;SDS011;7379;51.506;11.876;2022-09-09T04:17:09;3.33;;;1.80;;
14584;SDS011;7379;51.506;11.876;2022-09-09T04:19:36;2.70;;;1.70;;
14584;SDS011;7379;51.506;11.876;2022-09-09T04:22:03;2.03;;;1.80;;
14584;SDS011;7379;51.506;11.876;2022-09-09T04:24:30;2.65;;;2.00;;
14584;SDS011;7379;51.506;11.876;2022-09-09T04:26:56;3.00;;;1.88;;
14584;SDS011;7379;51.506;11.876;2022-09-09T04:29:24;3.00;;;1.77;;
14584;SDS011;7379;51.506;11.876;2022-09-09T04:31:51;2.30;;;1.80;;
14584;SDS011;7379;51.506;11.876;2022-09-09T04:34:18;2.80;;;2.00;;
14584;SDS011;7379;51.506;11.876;2022-09-09T04:36:45;2.30;;;1.90;;
14584;SDS011;7379;51.506;11.876;2022-09-09T04:39:11;2.70;;;1.83;;
14584;SDS011;7379;51.506;11.876;2022-09-09T04:41:39;3.35;;;2.10;;
14584;SDS011;7379;51.506;11.876;2022-09-09T04:44:06;2.72;;;1.90;;
14584;SDS011;7379;51.506;11.876;2022-09-09T04:46:34;2.75;;;1.92;;
14584;SDS011;7379;51.506;11.876;2022-09-09T04:49:01;2.53;;;1.90;;
14584;SDS011;7379;51.506;11.876;2022-09-09T04:51:28;3.55;;;2.05;;
14584;SDS011;7379;51.506;11.876;2022-09-09T04:53:56;2.65;;;1.77;;
14584;SDS011;7379;51.506;11.876;2022-09-09T04:56:23;2.60;;;1.88;;
14584;SDS011;7379;51.506;11.876;2022-09-09T04:58:51;5.53;;;2.10;;
14584;SDS011;7379;51.506;11.876;2022-09-09T05:01:19;2.30;;;2.00;;
14584;SDS011;7379;51.506;11.876;2022-09-09T05:03:48;2.92;;;2.03;;
14584;SDS011;7379;51.506;11.876;2022-09-09T05:06:15;4.10;;;2.00;;
14584;SDS011;7379;51.506;11.876;2022-09-09T05:08:44;2.92;;;2.00;;
14584;SDS011;7379;51.506;11.876;2022-09-09T05:11:14;2.53;;;2.10;;
14584;SDS011;7379;51.506;11.876;2022-09-09T05:13:42;2.17;;;1.90;;
14584;SDS011;7379;51.506;11.876;2022-09-09T05:16:09;3.03;;;1.80;;
14584;SDS011;7379;51.506;11.876;2022-09-09T05:18:36;2.95;;;2.10;;
14584;SDS011;7379;51.506;11.876;2022-09-09T05:21:05;4.03;;;2.10;;
14584;SDS011;7379;51.506;11.876;2022-09-09T05:23:32;2.55;;;2.08;;
14584;SDS011;7379;51.506;11.876;2022-09-09T05:25:59;3.92;;;2.10;;
14584;SDS011;7379;51.506;11.876;2022-09-09T05:28:26;3.05;;;2.20;;
14584;SDS011;7379;51.506;11.876;2022-09-09T05:30:57;2.90;;;1.95;;
14584;SDS011;7379;51.506;11.876;2022-09-09T05:33:25;3.10;;;2.00;;
14584;SDS011;7379;51.506;11.876;2022-09-09T05:35:56;3.42;;;2.17;;
14584;SDS011;7379;51.506;11.876;2022-09-09T05:38:25;3.90;;;1.90;;
14584;SDS011;7379;51.506;11.876;2022-09-09T05:40:52;3.15;;;2.03;;
14584;SDS011;7379;51.506;11.876;2022-09-09T05:43:19;2.85;;;2.00;;
14584;SDS011;7379;51.506;11.876;2022-09-09T05:45:46;2.65;;;1.98;;
14584;SDS011;7379;51.506;11.876;2022-09-09T05:48:13;3.40;;;1.98;;
14584;SDS011;7379;51.506;11.876;2022-09-09T05:50:41;2.85;;;2.05;;
14584;SDS011;7379;51.506;11.876;2022-09-09T05:53:08;3.33;;;2.10;;
14584;SDS011;7379;51.506;11.876;2022-09-09T05:55:36;2.80;;;2.10;;
14584;SDS011;7379;51.506;11.876;2022-09-09T05:58:03;2.45;;;1.90;;
14584;SDS011;7379;51.506;11.876;2022-09-09T06:00:30;3.20;;;2.13;;
14584;SDS011;7379;51.506;11.876;2022-09-09T06:02:57;2.47;;;2.00;;
14584;SDS011;7379;51.506;11.876;2022-09-09T06:05:24;2.38;;;1.75;;
14584;SDS011;7379;51.506;11.876;2022-09-09T06:07:52;2.15;;;1.90;;
14584;SDS011;7379;51.506;11.876;2022-09-09T06:10:19;3.50;;;2.20;;
14584;SDS011;7379;51.506;11.876;2022-09-09T06:12:47;3.55;;;1.90;;
14584;SDS011;7379;51.506;11.876;2022-09-09T06:15:14;3.10;;;2.10;;
14584;SDS011;7379;51.506;11.876;2022-09-09T06:17:42;2.35;;;2.10;;
14584;SDS011;7379;51.506;11.876;2022-09-09T06:20:10;3.13;;;1.95;;
14584;SDS011;7379;51.506;11.876;2022-09-09T06:22:38;3.03;;;2.20;;
14584;SDS011;7379;51.506;11.876;2022-09-09T06:25:06;2.95;;;1.98;;
14584;SDS011;7379;51.506;11.876;2022-09-09T06:27:34;3.22;;;2.20;;
14584;SDS011;7379;51.506;11.876;2022-09-09T06:30:02;3.00;;;2.00;;
14584;SDS011;7379;51.506;11.876;2022-09-09T06:32:29;2.78;;;1.88;;
14584;SDS011;7379;51.506;11.876;2022-09-09T06:34:59;2.85;;;2.00;;
14584;SDS011;7379;51.506;11.876;2022-09-09T06:37:27;3.38;;;2.00;;
14584;SDS011;7379;51.506;11.876;2022-09-09T06:39:54;3.83;;;2.00;;
14584;SDS011;7379;51.506;11.876;2022-09-09T06:42:21;3.17;;;2.00;;
14584;SDS011;7379;51.506;11.876;2022-09-09T06:44:48;2.45;;;1.70;;
14584;SDS011;7379;51.506;11.876;2022-09-09T06:47:16;2.90;;;1.90;;
14584;SDS011;7379;51.506;11.876;2022-09-09T06:49:43;2.47;;;1.90;;
14584;SDS011;7379;51.506;11.876;2022-09-09T06:52:09;3.15;;;1.90;;
14584;SDS011;7379;51.506;11.876;2022-09-09T06:54:36;2.33;;;1.70;;
14584;SDS011;7379;51.506;11.876;2022-09-09T06:57:03;3.17;;;1.85;;
14584;SDS011;7379;51.506;11.876;2022-09-09T06:59:32;2.78;;;1.88;;
14584;SDS011;7379;51.506;11.876;2022-09-09T07:01:58;2.55;;;1.92;;
14584;SDS011;7379;51.506;11.876;2022-09-09T07:04:27;2.92;;;1.88;;
14584;SDS011;7379;51.506;11.876;2022-09-09T07:06:54;2.85;;;1.92;;
14584;SDS011;7379;51.506;11.876;2022-09-09T07:09:21;2.70;;;1.80;;
14584;SDS011;7379;51.506;11.876;2022-09-09T07:11:49;2.95;;;1.90;;
14584;SDS011;7379;51.506;11.876;2022-09-09T07:14:17;2.25;;;1.90;;
14584;SDS011;7379;51.506;11.876;2022-09-09T07:16:45;2.95;;;2.05;;
14584;SDS011;7379;51.506;11.876;2022-09-09T07:19:13;3.15;;;1.80;;
14584;SDS011;7379;51.506;11.876;2022-09-09T07:21:41;2.08;;;1.75;;
14584;SDS011;7379;51.506;11.876;2022-09-09T07:24:09;2.40;;;1.80;;
14584;SDS011;7379;51.506;11.876;2022-09-09T07:26:37;2.47;;;1.70;;
14584;SDS011;7379;51.506;11.876;2022-09-09T07:29:05;1.88;;;1.70;;
14584;SDS011;7379;51.506;11.876;2022-09-09T07:31:32;2.42;;;1.67;;
14584;SDS011;7379;51.506;11.876;2022-09-09T07:34:01;2.63;;;1.80;;
14584;SDS011;7379;51.506;11.876;2022-09-09T07:36:29;3.17;;;1.95;;
14584;SDS011;7379;51.506;11.876;2022-09-09T07:39:00;2.15;;;1.70;;
14584;SDS011;7379;51.506;11.876;2022-09-09T07:41:28;2.00;;;1.60;;
14584;SDS011;7379;51.506;11.876;2022-09-09T07:43:59;2.30;;;1.70;;
14584;SDS011;7379;51.506;11.876;2022-09-09T07:46:30;2.78;;;1.65;;
14584;SDS011;7379;51.506;11.876;2022-09-09T07:48:56;2.95;;;1.73;;
14584;SDS011;7379;51.506;11.876;2022-09-09T07:51:24;3.30;;;1.70;;
14584;SDS011;7379;51.506;11.876;2022-09-09T07:53:53;3.08;;;1.80;;
14584;SDS011;7379;51.506;11.876;2022-09-09T07:56:23;3.65;;;1.90;;
14584;SDS011;7379;51.506;11.876;2022-09-09T07:58:52;2.65;;;1.90;;
14584;SDS011;7379;51.506;11.876;2022-09-09T08:01:21;3.53;;;1.90;;
14584;SDS011;7379;51.506;11.876;2022-09-09T08:03:52;1.70;;;1.50;;
14584;SDS011;7379;51.506;11.876;2022-09-09T08:06:20;3.08;;;2.00;;
14584;SDS011;7379;51.506;11.876;2022-09-09T08:08:50;2.72;;;2.00;;
14584;SDS011;7379;51.506;11.876;2022-09-09T08:11:17;4.25;;;1.98;;
14584;SDS011;7379;51.506;11.876;2022-09-09T08:13:45;3.60;;;1.80;;
14584;SDS011;7379;51.506;11.876;2022-09-09T08:16:13;2.75;;;1.70;;
14584;SDS011;7379;51.506;11.876;2022-09-09T08:18:41;3.63;;;1.70;;
14584;SDS011;7379;51.506;11.876;2022-09-09T08:21:09;3.05;;;1.70;;
14584;SDS011;7379;51.506;11.876;2022-09-09T08:23:38;3.47;;;1.85;;
14584;SDS011;7379;51.506;11.876;2022-09-09T08:26:06;2.83;;;1.58;;
14584;SDS011;7379;51.506;11.876;2022-09-09T08:28:36;3.95;;;1.55;;
14584;SDS011;7379;51.506;11.876;2022-09-09T08:31:08;3.53;;;1.67;;
14584;SDS011;7379;51.506;11.876;2022-09-09T08:33:36;2.33;;;1.70;;
14584;SDS011;7379;51.506;11.876;2022-09-09T08:36:04;2.50;;;1.73;;
14584;SDS011;7379;51.506;11.876;2022-09-09T08:38:33;3.65;;;1.60;;
14584;SDS011;7379;51.506;11.876;2022-09-09T08:41:04;2.17;;;1.65;;
14584;SDS011;7379;51.506;11.876;2022-09-09T08:43:43;2.55;;;1.40;;
14584;SDS011;7379;51.506;11.876;2022-09-09T08:46:15;2.47;;;1.80;;
14584;SDS011;7379;51.506;11.876;2022-09-09T08:48:48;3.60;;;1.90;;
14584;SDS011;7379;51.506;11.876;2022-09-09T08:51:23;3.90;;;1.55;;
14584;SDS011;7379;51.506;11.876;2022-09-09T08:53:53;4.53;;;1.70;;
14584;SDS011;7379;51.506;11.876;2022-09-09T08:56:24;3.25;;;1.70;;
14584;SDS011;7379;51.506;11.876;2022-09-09T08:58:54;3.17;;;1.70;;
14584;SDS011;7379;51.506;11.876;2022-09-09T09:01:41;1.73;;;1.50;;
14584;SDS011;7379;51.506;11.876;2022-09-09T09:04:14;3.58;;;1.58;;
14584;SDS011;7379;51.506;11.876;2022-09-09T09:06:59;2.53;;;1.45;;
14584;SDS011;7379;51.506;11.876;2022-09-09T09:09:33;3.65;;;1.67;;
14584;SDS011;7379;51.506;11.876;2022-09-09T09:12:08;4.22;;;1.80;;
14584;SDS011;7379;51.506;11.876;2022-09-09T09:14:42;3.05;;;1.65;;
14584;SDS011;7379;51.506;11.876;2022-09-09T09:17:12;3.95;;;1.85;;
14584;SDS011;7379;51.506;11.876;2022-09-09T09:19:41;3.78;;;1.70;;
14584;SDS011;7379;51.506;11.876;2022-09-09T09:22:12;4.07;;;1.60;;
14584;SDS011;7379;51.506;11.876;2022-09-09T09:24:45;4.30;;;1.90;;
14584;SDS011;7379;51.506;11.876;2022-09-09T09:27:18;3.78;;;1.90;;
14584;SDS011;7379;51.506;11.876;2022-09-09T09:29:56;2.90;;;1.80;;
14584;SDS011;7379;51.506;11.876;2022-09-09T09:32:25;4.10;;;1.90;;
14584;SDS011;7379;51.506;11.876;2022-09-09T09:34:56;2.95;;;1.60;;
14584;SDS011;7379;51.506;11.876;2022-09-09T09:37:26;2.20;;;1.60;;
14584;SDS011;7379;51.506;11.876;2022-09-09T09:39:56;3.20;;;1.90;;
14584;SDS011;7379;51.506;11.876;2022-09-09T09:42:34;2.20;;;1.60;;
14584;SDS011;7379;51.506;11.876;2022-09-09T09:45:07;3.75;;;1.55;;
14584;SDS011;7379;51.506;11.876;2022-09-09T09:47:36;3.58;;;1.65;;
14584;SDS011;7379;51.506;11.876;2022-09-09T09:50:16;2.70;;;1.45;;
14584;SDS011;7379;51.506;11.876;2022-09-09T09:52:51;4.07;;;1.70;;
14584;SDS011;7379;51.506;11.876;2022-09-09T09:55:20;3.50;;;1.83;;
14584;SDS011;7379;51.506;11.876;2022-09-09T09:57:47;3.78;;;1.83;;
14584;SDS011;7379;51.506;11.876;2022-09-09T10:00:16;4.25;;;1.90;;
14584;SDS011;7379;51.506;11.876;2022-09-09T10:02:47;3.88;;;1.70;;
14584;SDS011;7379;51.506;11.876;2022-09-09T10:05:17;2.88;;;1.90;;
14584;SDS011;7379;51.506;11.876;2022-09-09T10:07:46;2.90;;;1.55;;
14584;SDS011;7379;51.506;11.876;2022-09-09T10:10:28;3.35;;;1.58;;
14584;SDS011;7379;51.506;11.876;2022-09-09T10:13:08;5.40;;;2.00;;
14584;SDS011;7379;51.506;11.876;2022-09-09T10:15:43;3.33;;;1.88;;
14584;SDS011;7379;51.506;11.876;2022-09-09T10:18:24;2.28;;;1.50;;
14584;SDS011;7379;51.506;11.876;2022-09-09T10:21:14;2.53;;;1.45;;
14584;SDS011;7379;51.506;11.876;2022-09-09T10:23:57;4.65;;;1.90;;
14584;SDS011;7379;51.506;11.876;2022-09-09T10:26:35;2.70;;;1.60;;
14584;SDS011;7379;51.506;11.876;2022-09-09T10:29:15;4.28;;;1.60;;
14584;SDS011;7379;51.506;11.876;2022-09-09T10:31:54;2.50;;;1.55;;
14584;SDS011;7379;51.506;11.876;2022-09-09T10:34:37;3.13;;;1.73;;
14584;SDS011;7379;51.506;11.876;2022-09-09T10:37:21;3.30;;;1.63;;
14584;SDS011;7379;51.506;11.876;2022-09-09T10:40:00;3.50;;;1.80;;
14584;SDS011;7379;51.506;11.876;2022-09-09T10:42:37;4.28;;;1.80;;
14584;SDS011;7379;51.506;11.876;2022-09-09T10:45:07;2.83;;;1.60;;
14584;SDS011;7379;51.506;11.876;2022-09-09T10:47:49;2.83;;;1.67;;
14584;SDS011;7379;51.506;11.876;2022-09-09T10:53:22;2.17;;;1.45;;
14584;SDS011;7379;51.506;11.876;2022-09-09T10:55:57;3.28;;;1.80;;
14584;SDS011;7379;51.506;11.876;2022-09-09T10:58:30;2.78;;;1.45;;
14584;SDS011;7379;51.506;11.876;2022-09-09T11:01:06;2.90;;;1.60;;
14584;SDS011;7379;51.506;11.876;2022-09-09T11:03:41;3.63;;;1.70;;
14584;SDS011;7379;51.506;11.876;2022-09-09T11:06:12;2.55;;;1.40;;
14584;SDS011;7379;51.506;11.876;2022-09-09T11:08:43;4.65;;;1.80;;
14584;SDS011;7379;51.506;11.876;2022-09-09T11:11:11;3.45;;;1.70;;
14584;SDS011;7379;51.506;11.876;2022-09-09T11:13:44;2.70;;;1.70;;
14584;SDS011;7379;51.506;11.876;2022-09-09T11:16:19;2.63;;;1.67;;
14584;SDS011;7379;51.506;11.876;2022-09-09T11:18:51;2.63;;;1.63;;
14584;SDS011;7379;51.506;11.876;2022-09-09T11:21:26;5.40;;;1.67;;
14584;SDS011;7379;51.506;11.876;2022-09-09T11:23:57;3.13;;;1.65;;
14584;SDS011;7379;51.506;11.876;2022-09-09T11:26:31;2.63;;;1.55;;
14584;SDS011;7379;51.506;11.876;2022-09-09T11:29:09;2.45;;;1.60;;
14584;SDS011;7379;51.506;11.876;2022-09-09T11:31:53;3.78;;;1.80;;
14584;SDS011;7379;51.506;11.876;2022-09-09T11:34:36;3.78;;;1.85;;
14584;SDS011;7379;51.506;11.876;2022-09-09T11:37:25;2.85;;;1.38;;
14584;SDS011;7379;51.506;11.876;2022-09-09T11:40:16;4.68;;;1.67;;
14584;SDS011;7379;51.506;11.876;2022-09-09T11:42:48;2.58;;;1.42;;
14584;SDS011;7379;51.506;11.876;2022-09-09T11:45:27;2.85;;;1.60;;
14584;SDS011;7379;51.506;11.876;2022-09-09T11:47:55;4.07;;;2.05;;
14584;SDS011;7379;51.506;11.876;2022-09-09T11:50:28;2.95;;;1.67;;
14584;SDS011;7379;51.506;11.876;2022-09-09T11:53:14;4.20;;;1.65;;
14584;SDS011;7379;51.506;11.876;2022-09-09T11:55:47;4.07;;;1.67;;
14584;SDS011;7379;51.506;11.876;2022-09-09T11:58:26;2.38;;;1.58;;
14584;SDS011;7379;51.506;11.876;2022-09-09T12:00:58;3.83;;;1.85;;
14584;SDS011;7379;51.506;11.876;2022-09-09T12:03:32;4.40;;;1.77;;
14584;SDS011;7379;51.506;11.876;2022-09-09T12:06:08;3.72;;;1.88;;
14584;SDS011;7379;51.506;11.876;2022-09-09T12:08:39;2.70;;;1.60;;
14584;SDS011;7379;51.506;11.876;2022-09-09T12:11:09;5.22;;;1.50;;
14584;SDS011;7379;51.506;11.876;2022-09-09T12:13:37;2.88;;;1.60;;
14584;SDS011;7379;51.506;11.876;2022-09-09T12:16:04;3.22;;;1.52;;
14584;SDS011;7379;51.506;11.876;2022-09-09T12:18:32;2.13;;;1.52;;
14584;SDS011;7379;51.506;11.876;2022-09-09T12:21:03;3.85;;;1.60;;
14584;SDS011;7379;51.506;11.876;2022-09-09T12:23:38;2.90;;;1.60;;
14584;SDS011;7379;51.506;11.876;2022-09-09T12:26:25;3.70;;;1.50;;
14584;SDS011;7379;51.506;11.876;2022-09-09T12:29:01;3.75;;;1.60;;
14584;SDS011;7379;51.506;11.876;2022-09-09T12:31:39;2.85;;;1.45;;
14584;SDS011;7379;51.506;11.876;2022-09-09T12:34:11;4.47;;;1.50;;
14584;SDS011;7379;51.506;11.876;2022-09-09T12:36:41;3.08;;;1.77;;
14584;SDS011;7379;51.506;11.876;2022-09-09T12:39:15;3.20;;;1.60;;
14584;SDS011;7379;51.506;11.876;2022-09-09T12:41:52;2.65;;;1.55;;
14584;SDS011;7379;51.506;11.876;2022-09-09T12:44:22;3.78;;;1.75;;
14584;SDS011;7379;51.506;11.876;2022-09-09T12:46:50;3.30;;;1.63;;
14584;SDS011;7379;51.506;11.876;2022-09-09T12:49:29;3.45;;;1.50;;
14584;SDS011;7379;51.506;11.876;2022-09-09T12:52:00;3.05;;;1.50;;
14584;SDS011;7379;51.506;11.876;2022-09-09T12:54:29;2.72;;;1.40;;
14584;SDS011;7379;51.506;11.876;2022-09-09T12:56:56;2.47;;;1.30;;
14584;SDS011;7379;51.506;11.876;2022-09-09T12:59:24;3.75;;;1.40;;
14584;SDS011;7379;51.506;11.876;2022-09-09T13:01:55;3.17;;;1.50;;
14584;SDS011;7379;51.506;11.876;2022-09-09T13:04:23;3.15;;;1.60;;
14584;SDS011;7379;51.506;11.876;2022-09-09T13:06:50;2.88;;;1.40;;
14584;SDS011;7379;51.506;11.876;2022-09-09T13:09:18;1.92;;;1.40;;
14584;SDS011;7379;51.506;11.876;2022-09-09T13:11:47;2.47;;;1.67;;
14584;SDS011;7379;51.506;11.876;2022-09-09T13:14:17;2.08;;;1.27;;
14584;SDS011;7379;51.506;11.876;2022-09-09T13:16:54;3.88;;;1.70;;
14584;SDS011;7379;51.506;11.876;2022-09-09T13:19:22;4.22;;;1.30;;
14584;SDS011;7379;51.506;11.876;2022-09-09T13:21:52;2.08;;;1.40;;
14584;SDS011;7379;51.506;11.876;2022-09-09T13:24:27;4.03;;;1.73;;
14584;SDS011;7379;51.506;11.876;2022-09-09T13:26:59;3.47;;;1.40;;
14584;SDS011;7379;51.506;11.876;2022-09-09T13:29:28;3.88;;;1.50;;
14584;SDS011;7379;51.506;11.876;2022-09-09T13:32:03;4.93;;;1.60;;
14584;SDS011;7379;51.506;11.876;2022-09-09T13:34:33;2.58;;;1.50;;
14584;SDS011;7379;51.506;11.876;2022-09-09T13:37:01;2.97;;;1.27;;
14584;SDS011;7379;51.506;11.876;2022-09-09T13:39:31;2.60;;;1.52;;
14584;SDS011;7379;51.506;11.876;2022-09-09T13:42:01;3.00;;;1.27;;
14584;SDS011;7379;51.506;11.876;2022-09-09T13:44:29;2.55;;;1.45;;
14584;SDS011;7379;51.506;11.876;2022-09-09T13:47:02;2.03;;;1.30;;
14584;SDS011;7379;51.506;11.876;2022-09-09T13:49:30;1.55;;;1.10;;
14584;SDS011;7379;51.506;11.876;2022-09-09T13:52:04;2.45;;;1.30;;
14584;SDS011;7379;51.506;11.876;2022-09-09T13:54:35;2.95;;;1.30;;
14584;SDS011;7379;51.506;11.876;2022-09-09T13:57:03;2.95;;;1.20;;
14584;SDS011;7379;51.506;11.876;2022-09-09T13:59:30;3.88;;;1.40;;
14584;SDS011;7379;51.506;11.876;2022-09-09T14:01:57;2.10;;;1.27;;
14584;SDS011;7379;51.506;11.876;2022-09-09T14:04:24;3.92;;;1.30;;
14584;SDS011;7379;51.506;11.876;2022-09-09T14:06:51;2.38;;;1.52;;
14584;SDS011;7379;51.506;11.876;2022-09-09T14:09:18;3.83;;;1.27;;
14584;SDS011;7379;51.506;11.876;2022-09-09T14:11:45;2.03;;;1.30;;
14584;SDS011;7379;51.506;11.876;2022-09-09T14:14:13;3.00;;;1.50;;
14584;SDS011;7379;51.506;11.876;2022-09-09T14:16:39;2.72;;;1.50;;
14584;SDS011;7379;51.506;11.876;2022-09-09T14:19:07;3.00;;;1.40;;
14584;SDS011;7379;51.506;11.876;2022-09-09T14:21:34;2.65;;;1.55;;
14584;SDS011;7379;51.506;11.876;2022-09-09T14:24:01;1.42;;;1.02;;
14584;SDS011;7379;51.506;11.876;2022-09-09T14:26:28;2.03;;;1.20;;
14584;SDS011;7379;51.506;11.876;2022-09-09T14:28:55;4.25;;;1.20;;
14584;SDS011;7379;51.506;11.876;2022-09-09T14:31:23;2.63;;;1.27;;
14584;SDS011;7379;51.506;11.876;2022-09-09T14:33:51;2.38;;;1.27;;
14584;SDS011;7379;51.506;11.876;2022-09-09T14:36:18;3.15;;;1.15;;
14584;SDS011;7379;51.506;11.876;2022-09-09T14:38:45;3.72;;;1.20;;
14584;SDS011;7379;51.506;11.876;2022-09-09T14:41:12;1.77;;;1.00;;
14584;SDS011;7379;51.506;11.876;2022-09-09T14:43:41;1.85;;;1.13;;
14584;SDS011;7379;51.506;11.876;2022-09-09T14:46:09;2.40;;;1.20;;
14584;SDS011;7379;51.506;11.876;2022-09-09T14:48:39;1.63;;;0.93;;
14584;SDS011;7379;51.506;11.876;2022-09-09T14:51:07;2.15;;;1.08;;
14584;SDS011;7379;51.506;11.876;2022-09-09T14:53:35;1.80;;;1.15;;
14584;SDS011;7379;51.506;11.876;2022-09-09T14:56:03;4.13;;;1.10;;
14584;SDS011;7379;51.506;11.876;2022-09-09T14:58:33;3.03;;;1.20;;
14584;SDS011;7379;51.506;11.876;2022-09-09T15:01:04;2.75;;;0.98;;
14584;SDS011;7379;51.506;11.876;2022-09-09T15:03:31;1.25;;;0.85;;
14584;SDS011;7379;51.506;11.876;2022-09-09T15:06:04;1.50;;;0.80;;
14584;SDS011;7379;51.506;11.876;2022-09-09T15:08:31;1.95;;;0.85;;
14584;SDS011;7379;51.506;11.876;2022-09-09T15:10:59;1.30;;;0.80;;
14584;SDS011;7379;51.506;11.876;2022-09-09T15:13:26;1.77;;;0.85;;
14584;SDS011;7379;51.506;11.876;2022-09-09T15:15:53;1.60;;;0.90;;
14584;SDS011;7379;51.506;11.876;2022-09-09T15:18:20;2.78;;;1.00;;